sensor_id;sensor_type;location;lat;lon;timestamp;temperature;humidity
42339;DHT22;27993;45.392;10.918;2024-03-23T00:54:38;13.00;99.90
42339;DHT22;27993;45.392;10.918;2024-03-23T00:57:09;12.90;99.90
42339;DHT22;27993;45.392;10.918;2024-03-23T00:59:40;12.90;99.90
42339;DHT22;27993;45.392;10.918;2024-03-23T01:02:10;12.80;99.90
42339;DHT22;27993;45.392;10.918;2024-03-23T01:04:41;12.70;99.90
42339;DHT22;27993;45.392;10.918;2024-03-23T01:07:12;12.80;99.90
42339;DHT22;27993;45.392;10.918;2024-03-23T01:09:42;12.70;99.90
42339;DHT22;27993;45.392;10.918;2024-03-23T01:12:13;12.70;99.90
42339;DHT22;27993;45.392;10.918;2024-03-23T01:14:43;12.80;99.90
42339;DHT22;27993;45.392;10.918;2024-03-23T01:17:14;12.80;99.90
42339;DHT22;27993;45.392;10.918;2024-03-23T01:19:45;12.90;99.90
42339;DHT22;27993;45.392;10.918;2024-03-23T01:22:15;12.80;99.90
42339;DHT22;27993;45.392;10.918;2024-03-23T01:24:46;12.80;99.90
42339;DHT22;27993;45.392;10.918;2024-03-23T01:27:16;12.80;99.90
42339;DHT22;27993;45.392;10.918;2024-03-23T01:29:47;12.80;99.90
42339;DHT22;27993;45.392;10.918;2024-03-23T01:32:18;12.80;99.90
42339;DHT22;27993;45.392;10.918;2024-03-23T01:34:49;12.70;99.90
42339;DHT22;27993;45.392;10.918;2024-03-23T01:37:20;12.70;99.90
42339;DHT22;27993;45.392;10.918;2024-03-23T01:39:50;12.70;99.90
42339;DHT22;27993;45.392;10.918;2024-03-23T01:42:21;12.70;99.90
42339;DHT22;27993;45.392;10.918;2024-03-23T01:44:52;12.70;99.90
42339;DHT22;27993;45.392;10.918;2024-03-23T01:47:22;12.60;99.90
42339;DHT22;27993;45.392;10.918;2024-03-23T01:49:53;12.60;99.90
42339;DHT22;27993;45.392;10.918;2024-03-23T01:52:24;12.60;99.90
42339;DHT22;27993;45.392;10.918;2024-03-23T01:54:55;12.50;99.90
42339;DHT22;27993;45.392;10.918;2024-03-23T01:57:25;12.50;99.90
42339;DHT22;27993;45.392;10.918;2024-03-23T01:59:56;12.50;99.90
42339;DHT22;27993;45.392;10.918;2024-03-23T02:02:27;12.50;99.90
42339;DHT22;27993;45.392;10.918;2024-03-23T02:04:57;12.50;99.90
42339;DHT22;27993;45.392;10.918;2024-03-23T02:07:28;12.50;99.90
42339;DHT22;27993;45.392;10.918;2024-03-23T02:09:59;12.40;99.90
42339;DHT22;27993;45.392;10.918;2024-03-23T02:12:29;12.40;99.90
42339;DHT22;27993;45.392;10.918;2024-03-23T02:15:00;12.40;99.90
42339;DHT22;27993;45.392;10.918;2024-03-23T02:17:34;12.40;99.90
42339;DHT22;27993;45.392;10.918;2024-03-23T02:20:05;12.40;99.90
42339;DHT22;27993;45.392;10.918;2024-03-23T02:22:36;12.40;99.90
42339;DHT22;27993;45.392;10.918;2024-03-23T02:25:07;12.30;99.90
42339;DHT22;27993;45.392;10.918;2024-03-23T02:27:38;12.30;99.90
42339;DHT22;27993;45.392;10.918;2024-03-23T02:30:10;12.20;99.90
42339;DHT22;27993;45.392;10.918;2024-03-23T02:32:41;12.00;99.90
42339;DHT22;27993;45.392;10.918;2024-03-23T02:35:12;11.70;99.90
42339;DHT22;27993;45.392;10.918;2024-03-23T02:37:42;11.60;99.90
42339;DHT22;27993;45.392;10.918;2024-03-23T02:40:13;11.50;99.90
42339;DHT22;27993;45.392;10.918;2024-03-23T02:42:43;11.40;99.90
42339;DHT22;27993;45.392;10.918;2024-03-23T02:45:14;11.40;99.90
42339;DHT22;27993;45.392;10.918;2024-03-23T02:47:45;11.20;99.90
42339;DHT22;27993;45.392;10.918;2024-03-23T02:50:15;11.20;99.90
42339;DHT22;27993;45.392;10.918;2024-03-23T02:52:47;11.50;99.90
42339;DHT22;27993;45.392;10.918;2024-03-23T02:55:17;11.60;99.90
42339;DHT22;27993;45.392;10.918;2024-03-23T02:57:48;11.80;99.90
42339;DHT22;27993;45.392;10.918;2024-03-23T03:00:18;11.80;99.90
42339;DHT22;27993;45.392;10.918;2024-03-23T03:02:49;11.70;99.90
42339;DHT22;27993;45.392;10.918;2024-03-23T03:05:19;11.80;99.90
42339;DHT22;27993;45.392;10.918;2024-03-23T03:07:50;11.80;99.90
42339;DHT22;27993;45.392;10.918;2024-03-23T03:10:21;11.80;99.90
42339;DHT22;27993;45.392;10.918;2024-03-23T03:12:51;11.80;99.90
42339;DHT22;27993;45.392;10.918;2024-03-23T03:15:22;11.70;99.90
42339;DHT22;27993;45.392;10.918;2024-03-23T03:17:52;11.30;99.90
42339;DHT22;27993;45.392;10.918;2024-03-23T03:20:23;11.00;99.90
42339;DHT22;27993;45.392;10.918;2024-03-23T03:22:54;10.90;99.90
42339;DHT22;27993;45.392;10.918;2024-03-23T03:25:25;10.70;99.90
42339;DHT22;27993;45.392;10.918;2024-03-23T03:27:55;10.70;99.90
42339;DHT22;27993;45.392;10.918;2024-03-23T03:30:26;10.80;99.90
42339;DHT22;27993;45.392;10.918;2024-03-23T03:32:57;10.70;99.90
42339;DHT22;27993;45.392;10.918;2024-03-23T03:35:27;10.50;99.90
42339;DHT22;27993;45.392;10.918;2024-03-23T03:37:58;10.40;99.90
42339;DHT22;27993;45.392;10.918;2024-03-23T03:40:28;10.40;99.90
42339;DHT22;27993;45.392;10.918;2024-03-23T03:42:59;10.70;99.90
42339;DHT22;27993;45.392;10.918;2024-03-23T03:45:32;10.80;99.90
42339;DHT22;27993;45.392;10.918;2024-03-23T03:48:03;10.80;99.90
42339;DHT22;27993;45.392;10.918;2024-03-23T03:50:34;10.90;99.90
42339;DHT22;27993;45.392;10.918;2024-03-23T03:53:05;11.00;99.90
42339;DHT22;27993;45.392;10.918;2024-03-23T03:55:35;10.90;99.90
42339;DHT22;27993;45.392;10.918;2024-03-23T03:58:06;10.60;99.90
42339;DHT22;27993;45.392;10.918;2024-03-23T04:00:37;10.70;99.90
42339;DHT22;27993;45.392;10.918;2024-03-23T04:03:07;10.80;99.90
42339;DHT22;27993;45.392;10.918;2024-03-23T04:05:38;10.90;99.90
42339;DHT22;27993;45.392;10.918;2024-03-23T04:08:09;11.00;99.90
42339;DHT22;27993;45.392;10.918;2024-03-23T04:10:39;11.00;99.90
42339;DHT22;27993;45.392;10.918;2024-03-23T04:13:11;10.80;99.90
42339;DHT22;27993;45.392;10.918;2024-03-23T04:15:42;10.90;99.90
42339;DHT22;27993;45.392;10.918;2024-03-23T04:18:13;10.90;99.90
42339;DHT22;27993;45.392;10.918;2024-03-23T04:20:44;11.00;99.90
42339;DHT22;27993;45.392;10.918;2024-03-23T04:23:15;11.00;99.90
42339;DHT22;27993;45.392;10.918;2024-03-23T04:25:45;11.00;99.90
42339;DHT22;27993;45.392;10.918;2024-03-23T04:28:16;11.10;99.90
42339;DHT22;27993;45.392;10.918;2024-03-23T04:30:47;11.10;99.90
42339;DHT22;27993;45.392;10.918;2024-03-23T04:33:17;11.00;99.90
42339;DHT22;27993;45.392;10.918;2024-03-23T04:35:49;11.00;99.90
42339;DHT22;27993;45.392;10.918;2024-03-23T04:38:20;10.90;99.90
42339;DHT22;27993;45.392;10.918;2024-03-23T04:40:58;11.00;99.90
42339;DHT22;27993;45.392;10.918;2024-03-23T04:43:29;11.10;99.90
42339;DHT22;27993;45.392;10.918;2024-03-23T04:46:00;11.10;99.90
42339;DHT22;27993;45.392;10.918;2024-03-23T04:48:30;11.10;99.90
42339;DHT22;27993;45.392;10.918;2024-03-23T04:51:01;11.10;99.90
42339;DHT22;27993;45.392;10.918;2024-03-23T04:53:31;11.10;99.90
42339;DHT22;27993;45.392;10.918;2024-03-23T04:56:03;11.10;99.90
42339;DHT22;27993;45.392;10.918;2024-03-23T04:58:34;11.10;99.90
42339;DHT22;27993;45.392;10.918;2024-03-23T05:01:05;11.10;99.90
42339;DHT22;27993;45.392;10.918;2024-03-23T05:03:35;11.10;99.90
42339;DHT22;27993;45.392;10.918;2024-03-23T05:06:06;11.10;99.90
42339;DHT22;27993;45.392;10.918;2024-03-23T05:08:37;11.00;99.90
42339;DHT22;27993;45.392;10.918;2024-03-23T05:11:07;11.00;99.90
42339;DHT22;27993;45.392;10.918;2024-03-23T05:13:41;11.00;99.90
42339;DHT22;27993;45.392;10.918;2024-03-23T05:16:12;11.00;99.90
42339;DHT22;27993;45.392;10.918;2024-03-23T05:18:42;11.00;99.90
42339;DHT22;27993;45.392;10.918;2024-03-23T05:21:13;11.00;99.90
42339;DHT22;27993;45.392;10.918;2024-03-23T05:23:44;11.10;99.90
42339;DHT22;27993;45.392;10.918;2024-03-23T05:26:14;11.10;99.90
42339;DHT22;27993;45.392;10.918;2024-03-23T05:28:45;11.20;99.90
42339;DHT22;27993;45.392;10.918;2024-03-23T05:31:26;11.20;99.90
42339;DHT22;27993;45.392;10.918;2024-03-23T05:33:57;11.20;99.90
42339;DHT22;27993;45.392;10.918;2024-03-23T05:36:28;11.20;99.90
42339;DHT22;27993;45.392;10.918;2024-03-23T05:38:58;11.20;99.90
42339;DHT22;27993;45.392;10.918;2024-03-23T05:41:29;11.40;99.90
42339;DHT22;27993;45.392;10.918;2024-03-23T05:44:00;11.60;99.90
42339;DHT22;27993;45.392;10.918;2024-03-23T05:46:31;11.80;99.90
42339;DHT22;27993;45.392;10.918;2024-03-23T05:49:02;12.10;99.90
42339;DHT22;27993;45.392;10.918;2024-03-23T05:51:33;12.40;99.90
42339;DHT22;27993;45.392;10.918;2024-03-23T05:54:03;12.60;99.90
42339;DHT22;27993;45.392;10.918;2024-03-23T05:56:35;12.90;99.90
42339;DHT22;27993;45.392;10.918;2024-03-23T05:59:05;13.10;99.90
42339;DHT22;27993;45.392;10.918;2024-03-23T06:01:37;13.00;99.90
42339;DHT22;27993;45.392;10.918;2024-03-23T06:04:09;13.00;99.90
42339;DHT22;27993;45.392;10.918;2024-03-23T06:06:39;13.20;99.90
42339;DHT22;27993;45.392;10.918;2024-03-23T06:09:10;13.20;99.90
42339;DHT22;27993;45.392;10.918;2024-03-23T06:11:41;13.10;99.90
42339;DHT22;27993;45.392;10.918;2024-03-23T06:14:11;13.30;99.90
42339;DHT22;27993;45.392;10.918;2024-03-23T06:16:42;13.30;99.90
42339;DHT22;27993;45.392;10.918;2024-03-23T06:19:12;13.10;99.90
42339;DHT22;27993;45.392;10.918;2024-03-23T06:21:44;13.00;99.90
42339;DHT22;27993;45.392;10.918;2024-03-23T06:24:14;13.20;99.90
42339;DHT22;27993;45.392;10.918;2024-03-23T06:26:45;13.60;99.90
42339;DHT22;27993;45.392;10.918;2024-03-23T06:29:15;13.90;99.90
42339;DHT22;27993;45.392;10.918;2024-03-23T06:31:55;14.60;99.90
42339;DHT22;27993;45.392;10.918;2024-03-23T06:34:26;14.90;99.90
42339;DHT22;27993;45.392;10.918;2024-03-23T06:36:57;14.90;99.90
42339;DHT22;27993;45.392;10.918;2024-03-23T06:39:28;15.20;99.90
42339;DHT22;27993;45.392;10.918;2024-03-23T06:41:58;15.50;99.90
42339;DHT22;27993;45.392;10.918;2024-03-23T06:44:29;15.90;99.90
42339;DHT22;27993;45.392;10.918;2024-03-23T06:47:00;16.10;99.90
42339;DHT22;27993;45.392;10.918;2024-03-23T06:49:30;16.30;99.90
42339;DHT22;27993;45.392;10.918;2024-03-23T06:52:01;17.20;99.90
42339;DHT22;27993;45.392;10.918;2024-03-23T06:54:31;17.70;99.90
42339;DHT22;27993;45.392;10.918;2024-03-23T06:57:02;17.90;99.90
42339;DHT22;27993;45.392;10.918;2024-03-23T06:59:33;18.30;99.90
42339;DHT22;27993;45.392;10.918;2024-03-23T07:02:04;18.60;99.90
42339;DHT22;27993;45.392;10.918;2024-03-23T07:04:36;19.00;99.90
42339;DHT22;27993;45.392;10.918;2024-03-23T07:07:07;18.80;99.90
42339;DHT22;27993;45.392;10.918;2024-03-23T07:09:38;18.50;99.90
42339;DHT22;27993;45.392;10.918;2024-03-23T07:12:08;18.50;99.90
42339;DHT22;27993;45.392;10.918;2024-03-23T07:14:39;18.70;99.90
42339;DHT22;27993;45.392;10.918;2024-03-23T07:17:10;19.00;99.90
42339;DHT22;27993;45.392;10.918;2024-03-23T07:19:41;19.30;99.90
42339;DHT22;27993;45.392;10.918;2024-03-23T07:22:12;19.40;99.90
42339;DHT22;27993;45.392;10.918;2024-03-23T07:24:43;20.20;99.90
42339;DHT22;27993;45.392;10.918;2024-03-23T07:27:14;20.20;99.90
42339;DHT22;27993;45.392;10.918;2024-03-23T07:29:45;20.40;99.90
42339;DHT22;27993;45.392;10.918;2024-03-23T07:32:16;20.20;99.90
42339;DHT22;27993;45.392;10.918;2024-03-23T07:34:46;19.70;99.90
42339;DHT22;27993;45.392;10.918;2024-03-23T07:37:17;19.20;99.90
42339;DHT22;27993;45.392;10.918;2024-03-23T07:39:47;19.40;99.90
42339;DHT22;27993;45.392;10.918;2024-03-23T07:42:19;20.00;99.90
42339;DHT22;27993;45.392;10.918;2024-03-23T07:44:49;20.50;99.90
42339;DHT22;27993;45.392;10.918;2024-03-23T07:47:20;20.30;99.90
42339;DHT22;27993;45.392;10.918;2024-03-23T07:49:51;20.70;99.90
42339;DHT22;27993;45.392;10.918;2024-03-23T07:52:22;20.60;99.90
42339;DHT22;27993;45.392;10.918;2024-03-23T07:54:52;21.00;99.90
42339;DHT22;27993;45.392;10.918;2024-03-23T07:57:23;20.70;99.90
42339;DHT22;27993;45.392;10.918;2024-03-23T07:59:53;20.60;99.90
42339;DHT22;27993;45.392;10.918;2024-03-23T08:02:24;20.80;99.90
42339;DHT22;27993;45.392;10.918;2024-03-23T08:04:54;21.40;99.90
42339;DHT22;27993;45.392;10.918;2024-03-23T08:07:25;22.10;99.90
42339;DHT22;27993;45.392;10.918;2024-03-23T08:09:56;22.20;99.90
42339;DHT22;27993;45.392;10.918;2024-03-23T08:12:26;21.70;99.90
42339;DHT22;27993;45.392;10.918;2024-03-23T08:14:57;21.20;99.90
42339;DHT22;27993;45.392;10.918;2024-03-23T08:17:27;21.80;99.90
42339;DHT22;27993;45.392;10.918;2024-03-23T08:19:58;21.40;99.90
42339;DHT22;27993;45.392;10.918;2024-03-23T08:22:28;21.30;99.90
42339;DHT22;27993;45.392;10.918;2024-03-23T08:24:59;22.10;99.90
42339;DHT22;27993;45.392;10.918;2024-03-23T08:27:30;22.10;99.90
42339;DHT22;27993;45.392;10.918;2024-03-23T08:30:01;22.40;99.90
42339;DHT22;27993;45.392;10.918;2024-03-23T08:32:31;23.30;99.90
42339;DHT22;27993;45.392;10.918;2024-03-23T08:35:02;23.30;99.90
42339;DHT22;27993;45.392;10.918;2024-03-23T08:37:32;23.20;99.90
42339;DHT22;27993;45.392;10.918;2024-03-23T08:40:11;23.60;99.90
42339;DHT22;27993;45.392;10.918;2024-03-23T08:42:42;23.40;99.90
42339;DHT22;27993;45.392;10.918;2024-03-23T08:45:12;23.60;99.90
42339;DHT22;27993;45.392;10.918;2024-03-23T08:47:43;23.50;99.90
42339;DHT22;27993;45.392;10.918;2024-03-23T08:50:14;23.70;99.90
42339;DHT22;27993;45.392;10.918;2024-03-23T08:52:44;24.20;99.90
42339;DHT22;27993;45.392;10.918;2024-03-23T08:55:15;24.40;99.90
42339;DHT22;27993;45.392;10.918;2024-03-23T08:57:45;24.20;99.90
42339;DHT22;27993;45.392;10.918;2024-03-23T09:00:16;24.40;99.80
42339;DHT22;27993;45.392;10.918;2024-03-23T09:02:48;24.40;99.20
42339;DHT22;27993;45.392;10.918;2024-03-23T09:05:18;24.00;99.90
42339;DHT22;27993;45.392;10.918;2024-03-23T09:07:49;24.20;99.90
42339;DHT22;27993;45.392;10.918;2024-03-23T09:10:22;24.30;99.90
42339;DHT22;27993;45.392;10.918;2024-03-23T09:12:53;24.80;99.40
42339;DHT22;27993;45.392;10.918;2024-03-23T09:15:24;24.10;99.50
42339;DHT22;27993;45.392;10.918;2024-03-23T09:17:54;24.70;99.40
42339;DHT22;27993;45.392;10.918;2024-03-23T09:20:25;24.60;99.00
42339;DHT22;27993;45.392;10.918;2024-03-23T09:22:56;24.70;99.30
42339;DHT22;27993;45.392;10.918;2024-03-23T09:25:26;24.80;98.10
42339;DHT22;27993;45.392;10.918;2024-03-23T09:27:57;24.80;99.00
42339;DHT22;27993;45.392;10.918;2024-03-23T09:30:28;25.70;96.70
42339;DHT22;27993;45.392;10.918;2024-03-23T09:32:58;25.10;97.70
42339;DHT22;27993;45.392;10.918;2024-03-23T09:35:29;24.80;98.00
42339;DHT22;27993;45.392;10.918;2024-03-23T09:37:59;24.80;98.60
42339;DHT22;27993;45.392;10.918;2024-03-23T09:40:31;25.40;98.80
42339;DHT22;27993;45.392;10.918;2024-03-23T09:43:02;25.50;97.60
42339;DHT22;27993;45.392;10.918;2024-03-23T09:45:34;25.60;97.60
42339;DHT22;27993;45.392;10.918;2024-03-23T09:48:08;26.00;98.00
42339;DHT22;27993;45.392;10.918;2024-03-23T09:50:41;26.40;97.30
42339;DHT22;27993;45.392;10.918;2024-03-23T09:53:13;26.50;97.10
42339;DHT22;27993;45.392;10.918;2024-03-23T09:55:45;27.30;96.80
42339;DHT22;27993;45.392;10.918;2024-03-23T09:58:16;27.40;96.20
42339;DHT22;27993;45.392;10.918;2024-03-23T10:00:47;27.30;95.90
42339;DHT22;27993;45.392;10.918;2024-03-23T10:03:18;28.00;96.10
42339;DHT22;27993;45.392;10.918;2024-03-23T10:06:00;28.20;95.70
42339;DHT22;27993;45.392;10.918;2024-03-23T10:08:31;27.80;95.50
42339;DHT22;27993;45.392;10.918;2024-03-23T10:11:16;27.70;95.40
42339;DHT22;27993;45.392;10.918;2024-03-23T10:13:47;28.10;95.20
42339;DHT22;27993;45.392;10.918;2024-03-23T10:16:24;28.40;94.60
42339;DHT22;27993;45.392;10.918;2024-03-23T10:18:54;28.40;94.10
42339;DHT22;27993;45.392;10.918;2024-03-23T10:21:25;29.30;93.30
42339;DHT22;27993;45.392;10.918;2024-03-23T10:23:55;30.10;92.90
42339;DHT22;27993;45.392;10.918;2024-03-23T10:26:26;30.50;91.60
42339;DHT22;27993;45.392;10.918;2024-03-23T10:29:01;30.00;91.30
42339;DHT22;27993;45.392;10.918;2024-03-23T10:31:34;29.00;92.30
42339;DHT22;27993;45.392;10.918;2024-03-23T10:34:08;29.20;91.40
42339;DHT22;27993;45.392;10.918;2024-03-23T10:36:39;28.80;91.30
42339;DHT22;27993;45.392;10.918;2024-03-23T10:39:12;29.50;92.30
42339;DHT22;27993;45.392;10.918;2024-03-23T10:41:44;29.90;90.70
42339;DHT22;27993;45.392;10.918;2024-03-23T10:44:17;30.10;90.90
42339;DHT22;27993;45.392;10.918;2024-03-23T10:46:50;30.20;90.80
42339;DHT22;27993;45.392;10.918;2024-03-23T10:49:21;29.10;90.90
42339;DHT22;27993;45.392;10.918;2024-03-23T10:51:53;29.50;90.70
42339;DHT22;27993;45.392;10.918;2024-03-23T10:54:24;30.20;90.80
42339;DHT22;27993;45.392;10.918;2024-03-23T10:57:04;29.80;88.70
42339;DHT22;27993;45.392;10.918;2024-03-23T10:59:37;30.40;89.70
42339;DHT22;27993;45.392;10.918;2024-03-23T11:02:19;30.30;88.50
42339;DHT22;27993;45.392;10.918;2024-03-23T11:04:49;29.80;88.20
42339;DHT22;27993;45.392;10.918;2024-03-23T11:09:57;31.00;88.40
42339;DHT22;27993;45.392;10.918;2024-03-23T11:12:29;30.60;87.80
42339;DHT22;27993;45.392;10.918;2024-03-23T11:15:05;30.60;87.90
42339;DHT22;27993;45.392;10.918;2024-03-23T11:17:36;28.90;87.20
42339;DHT22;27993;45.392;10.918;2024-03-23T11:20:07;26.10;87.90
42339;DHT22;27993;45.392;10.918;2024-03-23T11:22:46;25.40;91.10
42339;DHT22;27993;45.392;10.918;2024-03-23T11:25:24;25.00;92.80
42339;DHT22;27993;45.392;10.918;2024-03-23T11:28:10;25.10;93.20
42339;DHT22;27993;45.392;10.918;2024-03-23T11:30:40;25.50;93.00
42339;DHT22;27993;45.392;10.918;2024-03-23T11:33:11;25.40;91.70
42339;DHT22;27993;45.392;10.918;2024-03-23T11:35:42;25.60;91.40
42339;DHT22;27993;45.392;10.918;2024-03-23T11:38:17;25.30;90.30
42339;DHT22;27993;45.392;10.918;2024-03-23T11:40:50;24.80;92.10
42339;DHT22;27993;45.392;10.918;2024-03-23T11:43:21;25.20;91.20
42339;DHT22;27993;45.392;10.918;2024-03-23T11:45:52;25.20;91.30
42339;DHT22;27993;45.392;10.918;2024-03-23T11:48:25;25.50;91.50
42339;DHT22;27993;45.392;10.918;2024-03-23T11:50:57;25.60;91.60
42339;DHT22;27993;45.392;10.918;2024-03-23T11:53:28;25.30;92.60
42339;DHT22;27993;45.392;10.918;2024-03-23T11:55:59;25.40;92.00
42339;DHT22;27993;45.392;10.918;2024-03-23T11:58:34;24.90;91.10
42339;DHT22;27993;45.392;10.918;2024-03-23T12:01:10;25.30;91.00
42339;DHT22;27993;45.392;10.918;2024-03-23T12:03:44;25.30;90.30
42339;DHT22;27993;45.392;10.918;2024-03-23T12:06:19;25.30;90.50
42339;DHT22;27993;45.392;10.918;2024-03-23T12:08:50;25.00;91.50
42339;DHT22;27993;45.392;10.918;2024-03-23T12:11:21;24.90;91.30
42339;DHT22;27993;45.392;10.918;2024-03-23T12:13:52;24.70;91.50
42339;DHT22;27993;45.392;10.918;2024-03-23T12:16:24;24.60;92.10
42339;DHT22;27993;45.392;10.918;2024-03-23T12:19:05;24.60;91.90
42339;DHT22;27993;45.392;10.918;2024-03-23T12:21:35;24.30;91.70
42339;DHT22;27993;45.392;10.918;2024-03-23T12:24:06;23.70;90.80
42339;DHT22;27993;45.392;10.918;2024-03-23T12:26:37;24.10;91.80
42339;DHT22;27993;45.392;10.918;2024-03-23T12:29:10;24.20;92.40
42339;DHT22;27993;45.392;10.918;2024-03-23T12:31:40;23.50;92.90
42339;DHT22;27993;45.392;10.918;2024-03-23T12:34:11;23.70;93.10
42339;DHT22;27993;45.392;10.918;2024-03-23T12:36:42;23.40;92.60
42339;DHT22;27993;45.392;10.918;2024-03-23T12:39:12;23.80;93.20
42339;DHT22;27993;45.392;10.918;2024-03-23T12:41:43;23.80;93.10
42339;DHT22;27993;45.392;10.918;2024-03-23T12:44:14;23.50;93.40
42339;DHT22;27993;45.392;10.918;2024-03-23T12:46:46;23.50;93.50
42339;DHT22;27993;45.392;10.918;2024-03-23T12:49:16;23.40;93.40
42339;DHT22;27993;45.392;10.918;2024-03-23T12:51:55;23.20;93.00
42339;DHT22;27993;45.392;10.918;2024-03-23T12:54:28;23.30;93.60
42339;DHT22;27993;45.392;10.918;2024-03-23T12:57:00;23.20;94.10
42339;DHT22;27993;45.392;10.918;2024-03-23T12:59:31;23.00;94.30
42339;DHT22;27993;45.392;10.918;2024-03-23T13:02:02;22.80;95.10
42339;DHT22;27993;45.392;10.918;2024-03-23T13:04:33;22.60;95.20
42339;DHT22;27993;45.392;10.918;2024-03-23T13:07:03;22.40;94.80
42339;DHT22;27993;45.392;10.918;2024-03-23T13:09:35;22.20;95.00
42339;DHT22;27993;45.392;10.918;2024-03-23T13:12:06;21.90;95.70
42339;DHT22;27993;45.392;10.918;2024-03-23T13:14:36;22.00;95.40
42339;DHT22;27993;45.392;10.918;2024-03-23T13:17:07;22.00;95.80
42339;DHT22;27993;45.392;10.918;2024-03-23T13:19:41;22.10;95.90
42339;DHT22;27993;45.392;10.918;2024-03-23T13:22:11;22.20;95.80
42339;DHT22;27993;45.392;10.918;2024-03-23T13:24:42;22.10;96.10
42339;DHT22;27993;45.392;10.918;2024-03-23T13:27:13;22.00;95.70
42339;DHT22;27993;45.392;10.918;2024-03-23T13:29:43;22.00;95.60
42339;DHT22;27993;45.392;10.918;2024-03-23T13:32:16;21.90;95.60
42339;DHT22;27993;45.392;10.918;2024-03-23T13:34:46;21.90;95.90
42339;DHT22;27993;45.392;10.918;2024-03-23T13:37:20;21.80;95.80
42339;DHT22;27993;45.392;10.918;2024-03-23T13:39:51;21.90;96.20
42339;DHT22;27993;45.392;10.918;2024-03-23T13:42:21;21.90;96.30
42339;DHT22;27993;45.392;10.918;2024-03-23T13:44:55;21.90;96.40
42339;DHT22;27993;45.392;10.918;2024-03-23T13:47:26;21.90;96.10
42339;DHT22;27993;45.392;10.918;2024-03-23T13:49:56;21.80;96.30
42339;DHT22;27993;45.392;10.918;2024-03-23T13:52:30;21.80;96.20
42339;DHT22;27993;45.392;10.918;2024-03-23T13:55:01;21.90;96.10
42339;DHT22;27993;45.392;10.918;2024-03-23T13:57:32;21.90;96.30
42339;DHT22;27993;45.392;10.918;2024-03-23T14:00:03;21.80;96.90
42339;DHT22;27993;45.392;10.918;2024-03-23T14:02:37;21.80;96.80
42339;DHT22;27993;45.392;10.918;2024-03-23T14:05:08;21.80;97.00
42339;DHT22;27993;45.392;10.918;2024-03-23T14:07:38;21.90;97.70
42339;DHT22;27993;45.392;10.918;2024-03-23T14:10:09;21.90;98.00
42339;DHT22;27993;45.392;10.918;2024-03-23T14:12:45;21.80;97.20
42339;DHT22;27993;45.392;10.918;2024-03-23T14:15:16;21.70;97.70
42339;DHT22;27993;45.392;10.918;2024-03-23T14:17:46;21.70;98.00
42339;DHT22;27993;45.392;10.918;2024-03-23T14:20:17;21.60;98.60
42339;DHT22;27993;45.392;10.918;2024-03-23T14:22:48;21.60;98.70
42339;DHT22;27993;45.392;10.918;2024-03-23T14:25:19;21.60;99.10
42339;DHT22;27993;45.392;10.918;2024-03-23T14:27:50;21.50;98.50
42339;DHT22;27993;45.392;10.918;2024-03-23T14:30:20;21.40;98.70
42339;DHT22;27993;45.392;10.918;2024-03-23T14:32:51;21.30;99.00
42339;DHT22;27993;45.392;10.918;2024-03-23T14:35:22;21.40;98.60
42339;DHT22;27993;45.392;10.918;2024-03-23T14:37:54;21.40;98.70
42339;DHT22;27993;45.392;10.918;2024-03-23T14:40:24;21.30;98.70
42339;DHT22;27993;45.392;10.918;2024-03-23T14:42:57;21.30;98.60
42339;DHT22;27993;45.392;10.918;2024-03-23T14:45:28;21.30;98.90
42339;DHT22;27993;45.392;10.918;2024-03-23T14:48:01;21.40;99.30
42339;DHT22;27993;45.392;10.918;2024-03-23T14:50:32;21.30;98.90
42339;DHT22;27993;45.392;10.918;2024-03-23T14:53:05;21.30;99.10
42339;DHT22;27993;45.392;10.918;2024-03-23T14:55:35;21.20;99.30
42339;DHT22;27993;45.392;10.918;2024-03-23T14:58:06;21.20;99.40
42339;DHT22;27993;45.392;10.918;2024-03-23T15:00:36;21.20;99.30
42339;DHT22;27993;45.392;10.918;2024-03-23T15:03:10;21.20;99.30
42339;DHT22;27993;45.392;10.918;2024-03-23T15:05:40;21.20;99.40
42339;DHT22;27993;45.392;10.918;2024-03-23T15:08:11;21.30;99.70
42339;DHT22;27993;45.392;10.918;2024-03-23T15:10:42;21.20;99.60
42339;DHT22;27993;45.392;10.918;2024-03-23T15:13:12;21.20;99.70
42339;DHT22;27993;45.392;10.918;2024-03-23T15:15:43;21.30;99.90
42339;DHT22;27993;45.392;10.918;2024-03-23T15:18:15;21.30;99.90
42339;DHT22;27993;45.392;10.918;2024-03-23T15:20:56;21.30;99.90
42339;DHT22;27993;45.392;10.918;2024-03-23T15:23:28;21.20;99.90
42339;DHT22;27993;45.392;10.918;2024-03-23T15:26:00;21.30;99.90
42339;DHT22;27993;45.392;10.918;2024-03-23T15:28:31;21.30;99.90
42339;DHT22;27993;45.392;10.918;2024-03-23T15:31:09;21.30;99.90
42339;DHT22;27993;45.392;10.918;2024-03-23T15:33:40;21.20;99.90
42339;DHT22;27993;45.392;10.918;2024-03-23T15:36:10;21.20;99.90
42339;DHT22;27993;45.392;10.918;2024-03-23T15:38:41;21.30;99.90
42339;DHT22;27993;45.392;10.918;2024-03-23T15:41:13;21.20;99.90
42339;DHT22;27993;45.392;10.918;2024-03-23T15:43:43;21.20;99.90
42339;DHT22;27993;45.392;10.918;2024-03-23T15:46:14;21.10;99.90
42339;DHT22;27993;45.392;10.918;2024-03-23T15:48:46;21.00;99.90
42339;DHT22;27993;45.392;10.918;2024-03-23T15:51:17;20.90;99.90
42339;DHT22;27993;45.392;10.918;2024-03-23T15:53:48;20.80;99.90
42339;DHT22;27993;45.392;10.918;2024-03-23T15:56:20;20.80;99.90
42339;DHT22;27993;45.392;10.918;2024-03-23T15:58:51;20.80;99.90
42339;DHT22;27993;45.392;10.918;2024-03-23T16:01:22;20.60;99.90
42339;DHT22;27993;45.392;10.918;2024-03-23T16:03:52;20.60;99.90
42339;DHT22;27993;45.392;10.918;2024-03-23T16:06:23;20.50;99.90
42339;DHT22;27993;45.392;10.918;2024-03-23T16:08:53;20.40;99.90
42339;DHT22;27993;45.392;10.918;2024-03-23T16:11:24;20.40;99.90
42339;DHT22;27993;45.392;10.918;2024-03-23T16:13:55;20.30;99.90
42339;DHT22;27993;45.392;10.918;2024-03-23T16:16:25;20.20;99.90
42339;DHT22;27993;45.392;10.918;2024-03-23T16:18:56;20.10;99.90
42339;DHT22;27993;45.392;10.918;2024-03-23T16:21:26;20.10;99.90
42339;DHT22;27993;45.392;10.918;2024-03-23T16:23:58;20.00;99.90
42339;DHT22;27993;45.392;10.918;2024-03-23T16:26:28;20.00;99.90
42339;DHT22;27993;45.392;10.918;2024-03-23T16:28:59;19.90;99.90
42339;DHT22;27993;45.392;10.918;2024-03-23T16:31:29;19.90;99.90
42339;DHT22;27993;45.392;10.918;2024-03-23T16:34:03;19.80;99.90
42339;DHT22;27993;45.392;10.918;2024-03-23T16:36:33;19.80;99.90